createdAt,value
2018-11-23T00:01:12.503Z,26.00
2018-11-23T00:03:49.860Z,25.60
2018-11-23T00:06:29.127Z,25.60
2018-11-23T00:09:02.760Z,25.55
2018-11-23T00:11:37.082Z,24.63
2018-11-23T00:14:10.774Z,25.92
2018-11-23T00:16:42.814Z,24.60
2018-11-23T00:19:16.445Z,25.32
2018-11-23T00:21:48.891Z,24.90
2018-11-23T00:24:25.764Z,24.92
2018-11-23T00:26:57.832Z,24.57
2018-11-23T00:29:31.431Z,24.23
2018-11-23T00:32:02.318Z,24.18
2018-11-23T00:34:35.848Z,25.75
2018-11-23T00:37:10.554Z,24.92
2018-11-23T00:39:42.817Z,24.30
2018-11-23T00:42:14.238Z,24.47
2018-11-23T00:44:46.235Z,25.45
2018-11-23T00:47:17.743Z,24.65
2018-11-23T00:49:52.594Z,24.07
2018-11-23T00:52:24.170Z,24.20
2018-11-23T00:54:58.324Z,24.72
2018-11-23T00:57:32.704Z,24.47
2018-11-23T01:00:05.708Z,25.25
2018-11-23T01:02:36.844Z,23.77
2018-11-23T01:05:11.125Z,24.45
2018-11-23T01:07:43.546Z,23.95
2018-11-23T01:10:18.001Z,23.02
2018-11-23T01:12:51.652Z,23.87
2018-11-23T01:15:25.545Z,22.67
2018-11-23T01:17:58.770Z,24.05
2018-11-23T01:20:30.239Z,24.67
2018-11-23T01:23:03.655Z,24.05
2018-11-23T01:25:35.368Z,23.73
2018-11-23T01:28:08.958Z,25.55
2018-11-23T01:30:42.448Z,23.98
2018-11-23T01:33:15.849Z,23.80
2018-11-23T01:35:47.917Z,24.75
2018-11-23T01:38:19.916Z,23.57
2018-11-23T01:40:52.994Z,22.95
2018-11-23T01:43:24.626Z,23.15
2018-11-23T01:45:59.502Z,23.38
2018-11-23T01:48:32.526Z,23.90
2018-11-23T01:51:04.906Z,23.90
2018-11-23T01:53:36.937Z,22.67
2018-11-23T01:56:10.555Z,22.52
2018-11-23T01:58:43.952Z,22.45
2018-11-23T02:01:15.381Z,23.42
2018-11-23T02:03:48.465Z,23.40
2018-11-23T02:06:20.895Z,22.93
2018-11-23T02:08:52.309Z,24.52
2018-11-23T02:11:26.713Z,23.55
2018-11-23T02:14:00.421Z,24.00
2018-11-23T02:16:33.740Z,24.50
2018-11-23T02:19:06.120Z,23.18
2018-11-23T02:21:36.720Z,22.77
2018-11-23T02:24:11.876Z,23.42
2018-11-23T02:26:44.556Z,23.67
2018-11-23T02:29:18.961Z,22.62
2018-11-23T02:31:51.762Z,23.42
2018-11-23T02:34:25.067Z,24.45
2018-11-23T02:36:58.633Z,23.98
2018-11-23T02:39:33.422Z,23.15
2018-11-23T02:42:06.417Z,23.05
2018-11-23T02:44:40.382Z,23.87
2018-11-23T02:47:17.964Z,22.22
2018-11-23T02:49:53.969Z,23.00
2018-11-23T02:52:26.080Z,22.87
2018-11-23T02:54:58.884Z,23.47
2018-11-23T02:57:31.319Z,23.15
2018-11-23T03:00:02.508Z,23.02
2018-11-23T03:02:36.801Z,22.05
2018-11-23T03:05:08.943Z,22.07
2018-11-23T03:07:40.145Z,23.10
2018-11-23T03:10:13.305Z,22.65
2018-11-23T03:12:45.362Z,23.50
2018-11-23T03:15:18.047Z,23.07
2018-11-23T03:17:49.967Z,23.15
2018-11-23T03:20:22.285Z,23.15
2018-11-23T03:22:55.798Z,23.35
2018-11-23T03:25:29.789Z,22.42
2018-11-23T03:28:02.167Z,22.75
2018-11-23T03:30:36.271Z,22.55
2018-11-23T03:33:09.900Z,23.27
2018-11-23T03:35:41.497Z,23.22
2018-11-23T03:38:14.424Z,23.32
2018-11-23T03:40:48.145Z,23.38
2018-11-23T03:43:20.743Z,23.40
2018-11-23T03:45:52.526Z,23.20
2018-11-23T03:48:27.304Z,23.45
2018-11-23T03:51:00.442Z,22.20
2018-11-23T03:53:39.363Z,22.48
2018-11-23T03:56:12.274Z,22.82
2018-11-23T03:58:46.214Z,22.70
2018-11-23T04:01:18.231Z,24.02
2018-11-23T04:03:50.613Z,24.25
2018-11-23T04:06:23.170Z,23.77
2018-11-23T04:08:54.892Z,23.30
2018-11-23T04:11:27.323Z,23.10
2018-11-23T04:14:00.394Z,22.85
2018-11-23T04:16:33.072Z,23.45
2018-11-23T04:28:16.779Z,23.32
2018-11-23T04:30:49.502Z,23.35
2018-11-23T04:33:21.923Z,22.60
2018-11-23T04:35:54.455Z,22.77
2018-11-23T04:38:29.012Z,23.25
2018-11-23T04:41:01.490Z,23.35
2018-11-23T04:43:36.606Z,22.22
2018-11-23T04:46:09.499Z,23.12
2018-11-23T04:48:41.460Z,23.20
2018-11-23T04:51:13.405Z,24.07
2018-11-23T04:53:45.945Z,23.57
2018-11-23T04:56:18.408Z,23.12
2018-11-23T04:58:52.027Z,23.55
2018-11-23T05:01:25.621Z,22.40
2018-11-23T05:03:57.354Z,22.15
2018-11-23T05:06:32.276Z,22.77
2018-11-23T05:09:05.859Z,22.52
2018-11-23T05:11:38.440Z,22.45
2018-11-23T05:14:11.178Z,22.85
2018-11-23T05:16:43.899Z,22.32
2018-11-23T05:19:16.727Z,22.42
2018-11-23T05:21:49.557Z,22.27
2018-11-23T05:24:22.832Z,22.95
2018-11-23T05:26:55.910Z,21.27
2018-11-23T05:29:30.242Z,22.32
2018-11-23T05:32:02.828Z,23.22
2018-11-23T05:34:33.881Z,23.02
2018-11-23T05:37:10.170Z,22.82
2018-11-23T05:39:44.353Z,22.73
2018-11-23T05:42:17.075Z,23.15
2018-11-23T05:44:48.548Z,22.75
2018-11-23T05:47:25.899Z,22.13
2018-11-23T05:50:01.872Z,21.93
2018-11-23T05:52:34.418Z,22.25
2018-11-23T05:55:07.260Z,21.42
2018-11-23T05:57:42.087Z,22.90
2018-11-23T06:00:15.993Z,23.35
2018-11-23T06:02:47.430Z,22.65
2018-11-23T06:05:21.521Z,23.90
2018-11-23T06:07:54.269Z,21.77
2018-11-23T06:10:25.688Z,23.18
2018-11-23T06:12:58.448Z,23.22
2018-11-23T06:15:30.861Z,24.45
2018-11-23T06:18:03.165Z,23.07
2018-11-23T06:20:37.766Z,23.85
2018-11-23T06:23:09.166Z,24.25
2018-11-23T06:25:43.164Z,23.83
2018-11-23T06:28:14.446Z,24.43
2018-11-23T06:30:46.599Z,23.67
2018-11-23T06:33:22.638Z,23.50
2018-11-23T06:35:55.362Z,24.52
2018-11-23T06:38:27.253Z,24.95
2018-11-23T06:40:59.372Z,23.40
2018-11-23T06:43:30.924Z,23.55
2018-11-23T06:46:04.441Z,23.47
2018-11-23T06:48:37.993Z,24.10
2018-11-23T06:51:10.113Z,24.25
2018-11-23T06:53:42.587Z,24.07
2018-11-23T06:56:14.355Z,24.50
2018-11-23T06:58:45.581Z,24.70
2018-11-23T07:01:19.796Z,24.52
2018-11-23T07:03:54.268Z,25.12
2018-11-23T07:06:27.448Z,23.95
2018-11-23T07:09:00.080Z,23.85
2018-11-23T07:11:33.216Z,26.00
2018-11-23T07:14:04.980Z,30.00
2018-11-23T07:16:36.609Z,35.05
2018-11-23T07:19:07.383Z,39.23
2018-11-23T07:21:39.720Z,44.30
2018-11-23T07:24:12.474Z,44.40
2018-11-23T07:26:43.168Z,49.30
2018-11-23T07:29:15.482Z,51.88
2018-11-23T07:31:47.833Z,54.65
2018-11-23T07:34:22.880Z,70.72
2018-11-23T07:36:53.214Z,82.55
2018-11-23T07:39:30.073Z,74.95
2018-11-23T07:42:09.538Z,74.42
2018-11-23T07:44:45.056Z,70.37
2018-11-23T07:47:19.306Z,71.42
2018-11-23T07:49:49.799Z,69.10
2018-11-23T07:52:21.893Z,68.67
2018-11-23T07:54:54.427Z,68.00
2018-11-23T07:57:25.638Z,64.47
2018-11-23T08:00:02.622Z,64.25
2018-11-23T08:02:36.343Z,64.05
2018-11-23T08:05:08.150Z,65.40
2018-11-23T08:07:40.649Z,67.20
2018-11-23T08:10:12.158Z,71.87
2018-11-23T08:12:49.307Z,73.85
2018-11-23T08:15:22.795Z,70.90
2018-11-23T08:17:53.785Z,76.85
2018-11-23T08:20:26.467Z,77.42
2018-11-23T08:22:58.496Z,79.67
2018-11-23T08:25:31.847Z,83.50
2018-11-23T08:28:04.693Z,81.10
2018-11-23T08:30:36.881Z,85.83
2018-11-23T08:33:10.001Z,84.52
2018-11-23T08:35:42.897Z,87.65
2018-11-23T08:38:14.856Z,84.85
2018-11-23T08:40:47.736Z,86.97
2018-11-23T08:43:19.282Z,88.52
2018-11-23T08:45:53.826Z,85.90
2018-11-23T08:48:24.807Z,86.53
2018-11-23T08:50:57.577Z,85.95
2018-11-23T08:53:31.890Z,84.72
2018-11-23T08:56:06.143Z,83.55
2018-11-23T08:58:39.297Z,80.55
2018-11-23T09:01:12.973Z,84.42
2018-11-23T09:03:47.407Z,86.37
2018-11-23T09:06:20.780Z,87.82
2018-11-23T09:08:55.574Z,86.65
2018-11-23T09:11:28.620Z,83.15
2018-11-23T09:14:02.004Z,82.67
2018-11-23T09:16:36.442Z,84.25
2018-11-23T09:19:07.458Z,83.05
2018-11-23T09:21:41.495Z,80.45
2018-11-23T09:24:12.086Z,79.72
2018-11-23T09:26:44.648Z,80.03
2018-11-23T09:29:16.842Z,75.90
2018-11-23T09:31:49.532Z,82.25
2018-11-23T09:34:21.876Z,76.60
2018-11-23T09:36:54.301Z,77.82
2018-11-23T09:39:29.145Z,75.17
2018-11-23T09:42:02.551Z,75.78
2018-11-23T09:44:37.462Z,75.40
2018-11-23T09:47:10.155Z,76.40
2018-11-23T09:49:41.300Z,75.47
2018-11-23T09:52:13.072Z,71.67
2018-11-23T09:54:48.359Z,71.85
2018-11-23T09:57:21.404Z,72.25
2018-11-23T09:59:53.794Z,72.85
2018-11-23T10:02:25.963Z,70.50
2018-11-23T10:04:59.039Z,68.05
2018-11-23T10:07:30.135Z,70.42
2018-11-23T10:10:01.820Z,69.12
2018-11-23T10:12:33.885Z,66.15
2018-11-23T10:15:07.600Z,67.92
2018-11-23T10:17:39.318Z,66.28
2018-11-23T10:20:14.324Z,64.27
2018-11-23T10:22:47.354Z,63.25
2018-11-23T10:25:21.832Z,64.03
2018-11-23T10:27:55.932Z,64.22
2018-11-23T10:30:29.516Z,64.95
2018-11-23T10:33:03.214Z,64.12
2018-11-23T10:35:35.994Z,63.02
2018-11-23T10:38:08.100Z,64.40
2018-11-23T10:40:43.317Z,63.60
2018-11-23T10:43:18.073Z,59.05
2018-11-23T10:45:51.030Z,65.00
2018-11-23T10:48:25.641Z,64.87
2018-11-23T10:50:59.816Z,63.13
2018-11-23T10:53:31.227Z,64.55
2018-11-23T10:56:04.498Z,62.95
2018-11-23T10:58:36.859Z,60.83
2018-11-23T11:01:15.725Z,62.93
2018-11-23T11:03:59.696Z,61.37
2018-11-23T11:06:41.011Z,61.00
2018-11-23T11:09:11.975Z,62.50
2018-11-23T11:11:45.464Z,58.83
2018-11-23T11:14:17.454Z,60.00
2018-11-23T11:16:49.464Z,60.70
2018-11-23T11:19:20.975Z,63.30
2018-11-23T11:21:54.749Z,60.63
2018-11-23T11:24:25.444Z,62.90
2018-11-23T11:27:00.650Z,57.83
2018-11-23T11:29:31.680Z,60.90
2018-11-23T11:32:04.615Z,61.15
2018-11-23T11:34:38.337Z,60.65
2018-11-23T11:37:10.985Z,60.17
2018-11-23T11:39:44.732Z,58.68
2018-11-23T11:42:18.413Z,61.33
2018-11-23T11:44:51.593Z,60.78
2018-11-23T11:47:29.260Z,58.75
2018-11-23T11:50:01.408Z,57.27
2018-11-23T11:52:38.326Z,57.80
2018-11-23T11:55:12.323Z,58.13
2018-11-23T11:57:44.160Z,55.17
2018-11-23T12:00:18.933Z,57.62
2018-11-23T12:02:54.053Z,57.65
2018-11-23T12:05:29.188Z,58.25
2018-11-23T12:08:05.549Z,54.77
2018-11-23T12:10:40.096Z,57.17
2018-11-23T12:13:11.804Z,60.58
2018-11-23T12:15:43.055Z,60.45
2018-11-23T12:18:14.426Z,60.90
2018-11-23T12:20:48.343Z,55.92
2018-11-23T12:23:19.595Z,60.03
2018-11-23T12:25:52.409Z,57.78
2018-11-23T12:28:25.968Z,60.95
2018-11-23T12:30:57.523Z,57.03
2018-11-23T12:33:31.127Z,61.23
2018-11-23T12:36:06.450Z,65.37
2018-11-23T12:38:40.182Z,61.25
2018-11-23T12:41:09.157Z,59.15
2018-11-23T12:43:42.325Z,48.95
2018-11-23T12:46:15.747Z,46.10
2018-11-23T12:48:51.060Z,46.95
2018-11-23T12:51:23.808Z,56.42
2018-11-23T12:53:58.362Z,55.90
2018-11-23T12:56:31.325Z,78.92
2018-11-23T12:59:05.289Z,79.92
2018-11-23T13:01:37.559Z,101.40
2018-11-23T13:04:09.374Z,104.55
2018-11-23T13:06:43.541Z,103.07
2018-11-23T13:09:17.072Z,111.32
2018-11-23T13:11:49.347Z,118.57
2018-11-23T13:14:21.514Z,115.35
2018-11-23T13:16:55.419Z,116.37
2018-11-23T13:19:26.589Z,121.35
2018-11-23T13:21:58.872Z,124.50
2018-11-23T13:24:32.018Z,124.90
2018-11-23T13:27:05.771Z,120.85
2018-11-23T13:29:40.120Z,124.07
2018-11-23T13:32:12.700Z,126.62
2018-11-23T13:34:44.954Z,125.30
2018-11-23T13:37:17.522Z,128.32
2018-11-23T13:39:54.192Z,124.97
2018-11-23T13:42:26.468Z,128.32
2018-11-23T13:45:00.146Z,126.55
2018-11-23T13:47:32.425Z,118.70
2018-11-23T13:50:05.914Z,123.90
2018-11-23T13:52:37.988Z,115.50
2018-11-23T13:55:09.605Z,122.53
2018-11-23T13:57:43.840Z,121.22
2018-11-23T14:00:18.859Z,115.40
2018-11-23T14:02:51.359Z,113.83
2018-11-23T14:05:25.590Z,114.72
2018-11-23T14:08:02.039Z,116.80
2018-11-23T14:10:34.951Z,112.97
2018-11-23T14:13:11.616Z,110.88
2018-11-23T14:15:44.058Z,111.30
2018-11-23T14:18:15.610Z,109.75
2018-11-23T14:20:49.851Z,101.62
2018-11-23T14:23:24.541Z,89.47
2018-11-23T14:25:56.604Z,77.58
2018-11-23T14:28:29.624Z,67.10
2018-11-23T14:31:02.315Z,65.87
2018-11-23T14:33:37.287Z,67.40
2018-11-23T14:36:10.058Z,63.70
2018-11-23T14:38:44.165Z,67.08
2018-11-23T14:41:16.854Z,67.03
2018-11-23T14:43:49.370Z,65.05
2018-11-23T14:46:22.782Z,63.75
2018-11-23T14:48:55.345Z,65.45
2018-11-23T14:51:27.176Z,64.58
2018-11-23T14:53:58.948Z,64.95
2018-11-23T14:56:29.843Z,62.48
2018-11-23T14:59:04.087Z,64.00
2018-11-23T15:01:38.489Z,62.27
2018-11-23T15:04:10.186Z,60.03
2018-11-23T15:06:42.797Z,61.68
2018-11-23T15:09:14.681Z,60.38
2018-11-23T15:11:46.631Z,59.90
2018-11-23T15:14:19.360Z,59.60
2018-11-23T15:16:52.223Z,59.58
2018-11-23T15:19:27.856Z,59.05
2018-11-23T15:22:00.763Z,58.68
2018-11-23T15:24:33.149Z,57.98
2018-11-23T15:27:06.040Z,55.63
2018-11-23T15:29:39.378Z,55.88
2018-11-23T15:32:12.177Z,52.33
2018-11-23T15:34:44.723Z,52.17
2018-11-23T15:37:19.020Z,50.58
2018-11-23T15:39:54.830Z,51.70
2018-11-23T15:42:30.192Z,46.25
2018-11-23T15:45:02.022Z,46.13
2018-11-23T15:47:35.443Z,48.55
2018-11-23T15:50:06.184Z,47.15
2018-11-23T15:52:38.589Z,48.08
2018-11-23T15:55:11.991Z,47.03
2018-11-23T15:57:46.251Z,45.00
2018-11-23T16:00:21.594Z,46.42
2018-11-23T16:02:54.908Z,46.08
2018-11-23T16:05:27.802Z,45.92
2018-11-23T16:08:00.708Z,44.00
2018-11-23T16:10:37.694Z,43.65
2018-11-23T16:13:12.471Z,44.77
2018-11-23T16:15:45.629Z,43.68
2018-11-23T16:18:17.998Z,43.17
2018-11-23T16:20:49.770Z,42.50
2018-11-23T16:23:23.333Z,41.75
2018-11-23T16:25:57.999Z,41.95
2018-11-23T16:28:30.888Z,42.05
2018-11-23T16:31:05.325Z,41.10
2018-11-23T16:33:38.162Z,42.17
2018-11-23T16:36:13.853Z,39.73
2018-11-23T16:38:48.077Z,39.35
2018-11-23T16:41:20.902Z,39.10
2018-11-23T16:43:53.816Z,39.75
2018-11-23T16:46:28.346Z,39.38
2018-11-23T16:49:01.933Z,39.65
2018-11-23T16:51:36.772Z,39.53
2018-11-23T16:54:13.384Z,39.05
2018-11-23T16:56:47.907Z,38.73
2018-11-23T16:59:19.019Z,38.48
2018-11-23T17:01:54.273Z,37.75
2018-11-23T17:04:29.068Z,36.48
2018-11-23T17:07:01.492Z,36.88
2018-11-23T17:09:32.576Z,36.17
2018-11-23T17:12:04.644Z,35.98
2018-11-23T17:14:35.564Z,35.92
2018-11-23T17:17:09.671Z,35.10
2018-11-23T17:19:42.990Z,35.50
2018-11-23T17:22:15.104Z,35.15
2018-11-23T17:24:46.007Z,35.65
2018-11-23T17:27:19.329Z,34.78
2018-11-23T17:29:50.697Z,34.38
2018-11-23T17:32:22.704Z,33.83
2018-11-23T17:34:56.292Z,33.67
2018-11-23T17:37:30.799Z,32.48
2018-11-23T17:40:04.889Z,33.33
2018-11-23T17:42:37.699Z,33.35
2018-11-23T17:45:10.386Z,31.85
2018-11-23T17:47:43.698Z,32.23
2018-11-23T17:50:18.337Z,33.35
2018-11-23T17:52:51.588Z,33.25
2018-11-23T17:55:25.301Z,32.15
2018-11-23T17:57:58.392Z,32.23
2018-11-23T18:00:38.887Z,31.48
2018-11-23T18:03:05.899Z,31.97
2018-11-23T18:05:40.623Z,31.57
2018-11-23T18:08:11.908Z,31.68
2018-11-23T18:10:42.617Z,30.50
2018-11-23T18:13:17.537Z,29.98
2018-11-23T18:15:49.729Z,30.08
2018-11-23T18:18:22.814Z,29.80
2018-11-23T18:20:57.110Z,28.73
2018-11-23T18:23:30.391Z,30.17
2018-11-23T18:26:04.572Z,29.02
2018-11-23T18:28:39.911Z,28.42
2018-11-23T18:31:13.361Z,30.50
2018-11-23T18:33:47.807Z,28.98
2018-11-23T18:36:19.465Z,27.70
2018-11-23T18:38:53.703Z,28.40
2018-11-23T18:41:30.268Z,28.23
2018-11-23T18:44:03.684Z,28.90
2018-11-23T18:46:35.837Z,28.52
2018-11-23T18:49:14.954Z,28.27
2018-11-23T18:51:49.029Z,28.75
2018-11-23T18:54:24.149Z,27.52
2018-11-23T18:56:56.623Z,26.07
2018-11-23T18:59:32.160Z,27.58
2018-11-23T19:02:06.401Z,25.52
2018-11-23T19:04:38.736Z,25.35
2018-11-23T19:07:11.493Z,25.70
2018-11-23T19:09:45.583Z,25.48
2018-11-23T19:12:18.928Z,25.02
2018-11-23T19:15:12.638Z,26.52
2018-11-23T19:17:49.472Z,26.40
2018-11-23T19:20:22.997Z,25.37
2018-11-23T19:22:57.186Z,24.85
2018-11-23T19:25:29.310Z,23.85
2018-11-23T19:28:01.946Z,23.00
2018-11-23T19:30:35.015Z,24.00
2018-11-23T19:33:12.482Z,23.07
2018-11-23T19:35:45.910Z,23.52
2018-11-23T19:38:19.320Z,23.05
2018-11-23T19:40:52.071Z,23.62
2018-11-23T19:43:23.616Z,23.57
2018-11-23T19:45:59.100Z,23.45
2018-11-23T19:48:31.252Z,23.65
2018-11-23T19:51:08.631Z,23.75
2018-11-23T19:53:42.884Z,23.32
2018-11-23T19:56:15.297Z,24.05
2018-11-23T19:58:49.834Z,23.30
2018-11-23T20:01:22.524Z,22.55
2018-11-23T20:03:55.535Z,23.55
2018-11-23T20:06:28.648Z,24.20
2018-11-23T20:09:01.777Z,21.05
2018-11-23T20:11:36.910Z,22.42
2018-11-23T20:14:10.683Z,22.70
2018-11-23T20:16:42.302Z,22.02
2018-11-23T20:19:14.922Z,21.23
2018-11-23T20:21:48.863Z,22.73
2018-11-23T20:24:21.124Z,23.52
2018-11-23T20:26:53.435Z,23.38
2018-11-23T20:29:28.203Z,23.30
2018-11-23T20:32:03.182Z,22.52
2018-11-23T20:34:36.749Z,21.95
2018-11-23T20:37:09.852Z,22.82
2018-11-23T20:39:41.857Z,22.65
2018-11-23T20:42:14.866Z,20.15
2018-11-23T20:44:47.133Z,21.62
2018-11-23T20:47:20.568Z,20.97
2018-11-23T20:49:51.700Z,19.95
2018-11-23T20:52:24.075Z,20.37
2018-11-23T20:54:59.387Z,20.72
2018-11-23T20:57:31.705Z,20.15
2018-11-23T21:00:03.529Z,20.62
2018-11-23T21:02:39.301Z,20.55
2018-11-23T21:05:11.042Z,20.37
2018-11-23T21:07:44.390Z,19.85
2018-11-23T21:10:20.309Z,18.50
2018-11-23T21:12:49.717Z,19.82
2018-11-23T21:15:24.150Z,19.67
2018-11-23T21:17:57.325Z,20.08
2018-11-23T21:20:30.103Z,19.57
2018-11-23T21:23:04.898Z,18.92
2018-11-23T21:25:36.770Z,19.50
2018-11-23T21:28:11.326Z,18.48
2018-11-23T21:30:46.770Z,19.62
2018-11-23T21:33:22.292Z,19.07
2018-11-23T21:35:54.953Z,18.12
2018-11-23T21:38:28.874Z,18.40
2018-11-23T21:41:02.160Z,18.10
2018-11-23T21:43:36.229Z,17.90
2018-11-23T21:46:09.281Z,17.80
2018-11-23T21:48:42.559Z,18.95
2018-11-23T21:51:16.265Z,18.35
2018-11-23T21:53:49.630Z,17.67
2018-11-23T21:56:23.757Z,17.80
2018-11-23T21:58:57.971Z,18.17
2018-11-23T22:01:33.052Z,17.95
2018-11-23T22:04:06.607Z,17.45
2018-11-23T22:06:40.803Z,17.37
2018-11-23T22:09:13.846Z,18.23
2018-11-23T22:11:52.321Z,18.00
2018-11-23T22:14:21.411Z,17.77
2018-11-23T22:16:56.986Z,17.85
2018-11-23T22:19:30.960Z,17.17
2018-11-23T22:22:05.599Z,16.37
2018-11-23T22:24:46.455Z,17.12
2018-11-23T22:27:21.351Z,16.60
2018-11-23T22:29:54.238Z,17.05
2018-11-23T22:32:27.611Z,16.32
2018-11-23T22:35:00.663Z,16.40
2018-11-23T22:37:32.506Z,16.35
2018-11-23T22:40:05.722Z,17.55
2018-11-23T22:42:44.536Z,16.75
2018-11-23T22:45:16.359Z,16.87
2018-11-23T22:47:51.321Z,16.42
2018-11-23T22:50:24.061Z,16.17
2018-11-23T22:52:58.161Z,17.17
2018-11-23T22:55:30.292Z,17.98
2018-11-23T22:58:04.018Z,16.35
2018-11-23T23:00:42.809Z,16.32
2018-11-23T23:03:17.095Z,16.17
2018-11-23T23:05:50.223Z,15.65
2018-11-23T23:08:21.088Z,17.05
2018-11-23T23:10:53.907Z,15.88
2018-11-23T23:13:28.035Z,15.98
2018-11-23T23:16:01.836Z,16.27
2018-11-23T23:18:34.186Z,15.78
2018-11-23T23:21:05.086Z,15.45
2018-11-23T23:23:38.413Z,15.35
2018-11-23T23:26:16.038Z,15.98
2018-11-23T23:28:48.910Z,16.50
2018-11-23T23:31:25.191Z,16.73
2018-11-23T23:33:58.512Z,15.58
2018-11-23T23:36:30.751Z,15.32
2018-11-23T23:39:01.763Z,14.90
2018-11-23T23:41:34.664Z,16.27
2018-11-23T23:44:06.332Z,15.40
2018-11-23T23:46:37.854Z,14.87
2018-11-23T23:49:09.631Z,15.68
2018-11-23T23:51:42.548Z,15.65
2018-11-23T23:54:13.392Z,15.58
2018-11-23T23:56:44.444Z,15.88
2018-11-23T23:59:16.139Z,15.70
